Marten — 5BNU3 — position and weather

sailwx.info

Track history (hours):
 
Tides and Currents Weather Stations Pressure Air Temp Water Temp Dewpoint Dewpoint Depression Visibility Wind Speed Wind Dir Waves Ship Positions

Marten

Last reported at 2018-May-24 23:32 UTC. Time now 2018-May-25 22:27 UTC.
Position N 58°09' E 005°42'.

Length 90 m; draft 5 m.

Type: Ship. MMSI: 212376000.

Date/timePositionNaut miles runAvg speedWind from/ knotsBaromVisibWave heightAir tempDewpointWater temp
2018-May-24 23:32N 58°09' E 005°42'010.9
2018-May-24 23:30N 58°09' E 005°42'510.7
2018-May-24 23:00N 58°14' E 005°39'511.0
2018-May-24 22:30N 58°19' E 005°37'611.5
2018-May-24 22:00N 58°25' E 005°34'612.2
2018-May-24 21:30N 58°31' E 005°31'612.2
2018-May-24 21:00N 58°37' E 005°28'612.3
2018-May-24 20:30N 58°43' E 005°25'611.9
2018-May-24 20:00N 58°48' E 005°22'612.1
2018-May-24 19:30N 58°55' E 005°21'612.0
2018-May-24 19:00N 59°00' E 005°19'510.7
2018-May-24 18:30N 59°06' E 005°22'611.7
2018-May-24 18:00N 59°09' E 005°30'611.5
2018-May-24 17:30N 59°13' E 005°38'611.5
2018-May-24 17:00N 59°17' E 005°46'611.3
2018-May-24 16:30N 59°20' E 005°56'510.7
2018-May-24 16:00N 59°24' E 006°04'5 9.9
2018-May-24 15:30N 59°27' E 006°11'611.0
2018-May-24 15:00N 59°32' E 006°16'510.4
2018-May-24 14:29N 59°37' E 006°19'2 4.3
2018-May-24 14:00N 59°39' E 006°22'0 0.0
2018-May-24 13:30N 59°39' E 006°22'0 0.0
2018-May-24 09:00N 59°39' E 006°22'0 0.0
2018-May-24 08:30N 59°39' E 006°22'0 0.0
2018-May-24 08:00N 59°39' E 006°22'0 0.0
2018-May-24 07:30N 59°39' E 006°22'0 0.0
2018-May-24 07:00N 59°39' E 006°22'0 0.0
2018-May-24 06:30N 59°39' E 006°22'0 0.0
2018-May-24 06:00N 59°39' E 006°22'0 0.0
2018-May-24 05:30N 59°39' E 006°22'0 0.0
2018-May-24 05:00N 59°39' E 006°22'0 0.0
2018-May-24 04:27N 59°39' E 006°22'0 0.0
2018-May-24 04:00N 59°39' E 006°22'0 0.0
2018-May-24 03:30N 59°39' E 006°22'0 0.0
2018-May-24 03:00N 59°39' E 006°22'0 0.0
2018-May-24 02:30N 59°39' E 006°22'0 0.0
2018-May-24 02:00N 59°39' E 006°22'0 0.0
2018-May-24 01:30N 59°39' E 006°22'0 0.0
2018-May-24 01:00N 59°39' E 006°22'0 0.0
2018-May-24 00:30N 59°39' E 006°22'0 0.0
2018-May-24 00:00N 59°39' E 006°22'0 0.0
2018-May-23 23:30N 59°39' E 006°22'0 0.0
2018-May-23 23:00N 59°39' E 006°22'0 0.0
2018-May-23 22:29N 59°39' E 006°22'0 0.0
2018-May-23 21:57N 59°39' E 006°22'0 0.0
2018-May-23 21:30N 59°39' E 006°22'0 0.0
2018-May-23 21:00N 59°39' E 006°22'0 0.0
2018-May-23 20:30N 59°39' E 006°22'0 0.0
2018-May-23 20:00N 59°39' E 006°22'0 0.0
2018-May-23 19:30N 59°39' E 006°22'0 0.0
2018-May-23 19:00N 59°39' E 006°22'0 0.0
2018-May-23 18:30N 59°39' E 006°22'0 0.0
2018-May-23 18:00N 59°39' E 006°22'0 0.0
2018-May-23 17:30N 59°39' E 006°22'0 0.0
2018-May-23 17:00N 59°39' E 006°22'0 0.0
2018-May-23 16:30N 59°39' E 006°22'0 0.0
2018-May-23 16:00N 59°39' E 006°22'0 0.0
2018-May-23 15:30N 59°39' E 006°22'0 0.0
2018-May-23 14:57N 59°39' E 006°22'0 0.0
2018-May-23 14:30N 59°39' E 006°22'0 0.0
2018-May-23 14:00N 59°39' E 006°22'0 0.0
2018-May-23 13:30N 59°39' E 006°22'0 0.0
2018-May-23 12:57N 59°39' E 006°22'0 0.0
2018-May-23 12:30N 59°39' E 006°22'0 0.0
2018-May-23 12:00N 59°39' E 006°22'0 0.0
2018-May-23 11:30N 59°39' E 006°22'0 0.0
2018-May-23 10:57N 59°39' E 006°22'1 1.8
2018-May-23 10:30N 59°38' E 006°20'1 2.6
2018-May-23 10:00N 59°37' E 006°19'2 4.7
2018-May-23 09:30N 59°35' E 006°19'5 9.6
2018-May-23 09:00N 59°30' E 006°15'5 9.7
2018-May-23 08:30N 59°26' E 006°10'4 7.9
2018-May-23 08:01N 59°24' E 006°04'610.9
2018-May-23 07:29N 59°19' E 005°59'511.3
2018-May-23 07:00N 59°14' E 005°55'611.7
2018-May-23 06:31N 59°08' E 005°52'4 8.6
2018-May-23 06:00N 59°04' E 005°55'0 0.1
2018-May-23 05:30N 59°04' E 005°55'0 0.0
2018-May-23 05:01N 59°04' E 005°55'0 0.0
2018-May-23 04:31N 59°04' E 005°55'0 0.0
2018-May-23 03:58N 59°04' E 005°55'0 0.0
2018-May-23 03:27N 59°04' E 005°55'0 0.0
2018-May-23 03:00N 59°04' E 005°55'0 0.0
2018-May-23 02:30N 59°04' E 005°55'0 0.0
2018-May-23 02:00N 59°04' E 005°55'0 0.0
2018-May-23 01:30N 59°04' E 005°55'0 0.0
2018-May-23 00:58N 59°04' E 005°55'0 0.0
2018-May-23 00:30N 59°04' E 005°55'0 0.0
2018-May-23 00:00N 59°04' E 005°55'0 0.0
2018-May-22 23:30N 59°04' E 005°55'0 0.0
2018-May-22 22:58N 59°04' E 005°55'0 0.0
2018-May-22 22:30N 59°04' E 005°55'0 0.0
2018-May-22 22:00N 59°04' E 005°55'0 0.0
2018-May-22 21:30N 59°04' E 005°55'0 0.0
2018-May-22 21:00N 59°04' E 005°55'0 0.0
2018-May-22 20:30N 59°04' E 005°55'0 0.0
2018-May-22 20:00N 59°04' E 005°55'0 0.0
2018-May-22 19:30N 59°04' E 005°55'0 0.0
2018-May-22 19:00N 59°04' E 005°55'0 0.0
2018-May-22 18:30N 59°04' E 005°55'0 0.0
2018-May-22 18:00N 59°04' E 005°55'0 0.0
2018-May-22 17:30N 59°04' E 005°55'0 0.0
2018-May-22 17:00N 59°04' E 005°55'0 0.0
2018-May-22 16:30N 59°04' E 005°55'0 0.0
2018-May-22 16:00N 59°04' E 005°55'0 0.0
2018-May-22 15:30N 59°04' E 005°55'0 0.0
2018-May-22 15:00N 59°04' E 005°55'0 0.0
2018-May-22 14:27N 59°04' E 005°55'0 0.0
2018-May-22 14:00N 59°04' E 005°55'0 0.0
2018-May-22 13:30N 59°04' E 005°55'0 0.0
2018-May-22 13:00N 59°04' E 005°55'0 0.0
2018-May-22 12:30N 59°04' E 005°55'0 0.0
2018-May-22 12:00N 59°04' E 005°55'0 0.0
2018-May-22 11:30N 59°04' E 005°55'0 0.0
2018-May-22 11:00N 59°04' E 005°55'0 0.0
2018-May-22 10:30N 59°04' E 005°55'0 0.0
2018-May-22 10:00N 59°04' E 005°55'0 0.0
2018-May-22 09:30N 59°04' E 005°55'0 0.0
2018-May-22 09:00N 59°04' E 005°55'0 0.0
2018-May-22 08:30N 59°04' E 005°55'0 0.0
2018-May-22 08:00N 59°04' E 005°55'0 0.0
2018-May-22 07:30N 59°04' E 005°55'0 0.0
2018-May-22 07:00N 59°04' E 005°55'0 0.0
2018-May-22 06:30N 59°04' E 005°55'0 0.0
2018-May-22 06:00N 59°04' E 005°55'0 0.0
2018-May-22 05:30N 59°04' E 005°55'0 0.0
2018-May-22 05:00N 59°04' E 005°55'0 0.0
2018-May-22 04:30N 59°04' E 005°55'0 0.0
2018-May-22 04:00N 59°04' E 005°55'0 0.0
2018-May-22 03:30N 59°04' E 005°55'0 0.0
2018-May-22 03:00N 59°04' E 005°55'0 0.0
2018-May-22 02:30N 59°04' E 005°55'0 0.0
2018-May-22 02:00N 59°04' E 005°55'0 0.0
2018-May-22 01:30N 59°04' E 005°55'0 0.0
2018-May-22 01:00N 59°04' E 005°55'0 0.0
2018-May-22 00:30N 59°04' E 005°55'0 0.0
2018-May-21 23:57N 59°04' E 005°55'0 0.0
2018-May-21 23:30N 59°04' E 005°55'0 0.0
2018-May-21 22:57N 59°04' E 005°55'0 0.0
2018-May-21 22:30N 59°04' E 005°55'0 0.0
2018-May-21 22:00N 59°04' E 005°55'0 0.0
2018-May-21 21:30N 59°04' E 005°55'0 0.0
2018-May-21 21:00N 59°04' E 005°55'0 0.0
2018-May-21 20:30N 59°04' E 005°55'0 0.0
2018-May-21 20:00N 59°04' E 005°55'0 0.0
2018-May-21 19:30N 59°04' E 005°55'0 0.0
2018-May-21 19:00N 59°04' E 005°55'0 0.0
2018-May-21 18:30N 59°04' E 005°55'0 0.0
2018-May-21 18:00N 59°04' E 005°55'0 0.0
2018-May-21 17:30N 59°04' E 005°55'0 0.0
2018-May-21 17:00N 59°04' E 005°55'0 0.0
2018-May-21 16:30N 59°04' E 005°55'0 0.0
2018-May-21 16:00N 59°04' E 005°55'0 0.0
2018-May-21 15:30N 59°04' E 005°55'0 0.0
2018-May-21 15:00N 59°04' E 005°55'0 0.0
2018-May-21 14:30N 59°04' E 005°55'0 0.0
2018-May-21 14:00N 59°04' E 005°55'0 0.0
2018-May-21 13:30N 59°04' E 005°55'0 0.0
2018-May-21 13:00N 59°04' E 005°55'0 0.0
2018-May-21 12:30N 59°04' E 005°55'0 0.0
2018-May-21 12:00N 59°04' E 005°55'0 0.0
2018-May-21 11:30N 59°04' E 005°55'0 0.0
2018-May-21 11:00N 59°04' E 005°55'0 0.0
2018-May-21 10:30N 59°04' E 005°55'0 0.0
2018-May-21 10:00N 59°04' E 005°55'0 0.0
2018-May-21 09:30N 59°04' E 005°55'0 0.0
2018-May-21 09:00N 59°04' E 005°55'0 0.0
2018-May-21 08:30N 59°04' E 005°55'0 0.0
2018-May-21 08:00N 59°04' E 005°55'0 0.0
2018-May-21 07:30N 59°04' E 005°55'0 0.0
2018-May-21 07:00N 59°04' E 005°55'0 0.0
2018-May-21 06:30N 59°04' E 005°55'0 0.0
2018-May-21 06:00N 59°04' E 005°55'0 0.0
2018-May-21 05:30N 59°04' E 005°55'0 0.0
2018-May-21 05:00N 59°04' E 005°55'0 0.0
2018-May-21 04:30N 59°04' E 005°55'0 0.0
2018-May-21 04:00N 59°04' E 005°55'0 0.0
2018-May-21 03:27N 59°04' E 005°55'0 0.0
2018-May-21 03:00N 59°04' E 005°55'0 0.0
2018-May-21 02:30N 59°04' E 005°55'0 0.0
2018-May-21 02:00N 59°04' E 005°55'0 0.0
2018-May-21 01:30N 59°04' E 005°55'0 0.0
2018-May-21 01:00N 59°04' E 005°55'0 0.0
2018-May-21 00:30N 59°04' E 005°55'0 0.0
2018-May-21 00:00N 59°04' E 005°55'0 0.0
2018-May-20 23:30N 59°04' E 005°55'0 0.0
2018-May-20 23:00N 59°04' E 005°55'0 0.0
2018-May-20 22:30N 59°04' E 005°55'0 0.0
2018-May-20 22:00N 59°04' E 005°55'0 0.0
2018-May-20 21:30N 59°04' E 005°55'0 0.0
2018-May-20 21:00N 59°04' E 005°55'0 0.0
2018-May-20 20:30N 59°04' E 005°55'0 0.0
2018-May-20 20:00N 59°04' E 005°55'0 0.0
2018-May-20 19:30N 59°04' E 005°55'0 0.0
2018-May-20 19:00N 59°04' E 005°55'0 0.0
2018-May-20 18:30N 59°04' E 005°55'0 0.0
2018-May-20 18:00N 59°04' E 005°55'0 0.0
2018-May-20 17:30N 59°04' E 005°55'0 0.0
2018-May-20 17:00N 59°04' E 005°55'0 0.0
2018-May-20 16:30N 59°04' E 005°55'0 0.0
2018-May-20 16:00N 59°04' E 005°55'0 0.0
2018-May-20 15:30N 59°04' E 005°55'0 0.0
2018-May-20 15:00N 59°04' E 005°55'0 0.0
2018-May-20 14:30N 59°04' E 005°55'0 0.0
2018-May-20 14:00N 59°04' E 005°55'0 0.0
2018-May-20 13:30N 59°04' E 005°55'0 0.0
2018-May-20 13:00N 59°04' E 005°55'0 0.0
2018-May-20 12:30N 59°04' E 005°55'0 0.0
2018-May-20 12:00N 59°04' E 005°55'0 0.0
2018-May-20 11:30N 59°04' E 005°55'0 0.0
2018-May-20 11:00N 59°04' E 005°55'0 0.0
2018-May-20 10:30N 59°04' E 005°55'0 0.0
2018-May-20 10:00N 59°04' E 005°55'0 0.0
2018-May-20 09:30N 59°04' E 005°55'0 0.0
2018-May-20 09:00N 59°04' E 005°55'0 0.0
2018-May-20 08:30N 59°04' E 005°55'0 0.0
2018-May-20 08:00N 59°04' E 005°55'0 0.0
2018-May-20 07:30N 59°04' E 005°55'0 0.0
2018-May-20 07:00N 59°04' E 005°55'0 0.0
2018-May-20 06:30N 59°04' E 005°55'0 0.0
2018-May-20 06:00N 59°04' E 005°55'0 0.0
2018-May-20 05:30N 59°04' E 005°55'0 0.0
2018-May-20 05:00N 59°04' E 005°55'0 0.0
2018-May-20 04:30N 59°04' E 005°55'0 0.0
2018-May-20 04:00N 59°04' E 005°55'0 0.0
2018-May-20 03:30N 59°04' E 005°55'0 0.0
2018-May-20 03:00N 59°04' E 005°55'0 0.0
2018-May-20 02:30N 59°04' E 005°55'0 0.0
2018-May-20 01:57N 59°04' E 005°55'0 0.0
2018-May-20 01:30N 59°04' E 005°55'0 0.0
2018-May-20 01:00N 59°04' E 005°55'0 0.0
2018-May-20 00:30N 59°04' E 005°55'0 0.0
2018-May-20 00:00N 59°04' E 005°55'0 0.0
2018-May-19 23:30N 59°04' E 005°55'0 0.0
2018-May-19 23:00N 59°04' E 005°55'0 0.0
2018-May-19 22:30N 59°04' E 005°55'0 0.0
2018-May-19 22:00N 59°04' E 005°55'0 0.0
2018-May-19 21:30N 59°04' E 005°55'0 0.0
2018-May-19 21:00N 59°04' E 005°55'0 0.0
2018-May-19 20:30N 59°04' E 005°55'0 0.0
2018-May-19 20:00N 59°04' E 005°55'0 0.0
2018-May-19 19:30N 59°04' E 005°55'0 0.0
2018-May-19 19:00N 59°04' E 005°55'0 0.0
2018-May-19 18:30N 59°04' E 005°55'0 0.0
2018-May-19 18:00N 59°04' E 005°55'0 0.0
2018-May-19 17:30N 59°04' E 005°55'0 0.0
2018-May-19 17:00N 59°04' E 005°55'0 0.0
2018-May-19 16:30N 59°04' E 005°55'0 0.0
2018-May-19 16:00N 59°04' E 005°55'0 0.0
2018-May-19 15:27N 59°04' E 005°55'0 0.0
2018-May-19 15:00N 59°04' E 005°55'0 0.0
2018-May-19 14:30N 59°04' E 005°55'0 0.0
2018-May-19 14:00N 59°04' E 005°55'0 0.0
2018-May-19 13:30N 59°04' E 005°55'0 0.0
2018-May-19 13:00N 59°04' E 005°55'0 0.0
2018-May-19 12:30N 59°04' E 005°55'0 0.0
2018-May-19 12:00N 59°04' E 005°55'0 0.0
2018-May-19 11:30N 59°04' E 005°55'0 0.0
2018-May-19 11:00N 59°04' E 005°55'0 0.0
2018-May-19 10:30N 59°04' E 005°55'0 0.0
2018-May-19 10:00N 59°04' E 005°55'0 0.0
2018-May-19 09:30N 59°04' E 005°55'0 0.0
2018-May-19 09:00N 59°04' E 005°55'0 0.0
2018-May-19 08:30N 59°04' E 005°55'0 0.0
2018-May-19 07:57N 59°04' E 005°55'0 0.0
2018-May-19 07:30N 59°04' E 005°55'0 0.0
2018-May-19 07:00N 59°04' E 005°55'0 0.0
2018-May-19 06:30N 59°04' E 005°55'0 0.0
2018-May-19 06:00N 59°04' E 005°55'0 0.0
2018-May-19 05:30N 59°04' E 005°55'0 0.0
2018-May-19 05:00N 59°04' E 005°55'0 0.0
2018-May-19 04:30N 59°04' E 005°55'0 0.0
2018-May-19 04:00N 59°04' E 005°55'0 0.0
2018-May-19 03:30N 59°04' E 005°55'0 0.0
2018-May-19 03:00N 59°04' E 005°55'0 0.0
2018-May-19 02:30N 59°04' E 005°55'0 0.0
2018-May-19 02:00N 59°04' E 005°55'0 0.0
2018-May-19 01:27N 59°04' E 005°55'0 0.0
2018-May-19 01:00N 59°04' E 005°55'0 0.0
2018-May-19 00:30N 59°04' E 005°55'0 0.0
2018-May-19 00:00N 59°04' E 005°55'0 0.0
2018-May-18 23:30N 59°04' E 005°55'0 0.0
2018-May-18 23:00N 59°04' E 005°55'0 0.0
2018-May-18 22:30N 59°04' E 005°55'0 0.0
2018-May-18 21:57N 59°04' E 005°55'0 0.0
2018-May-18 21:30N 59°04' E 005°55'0 0.0
2018-May-18 21:00N 59°04' E 005°55'0 0.0
2018-May-18 20:30N 59°04' E 005°55'0 0.0
2018-May-18 20:00N 59°04' E 005°55'0 0.0
2018-May-18 19:30N 59°04' E 005°55'0 0.0
2018-May-18 19:00N 59°04' E 005°55'0 0.0
2018-May-18 18:30N 59°04' E 005°55'0 0.0
2018-May-18 18:00N 59°04' E 005°55'0 0.0
2018-May-18 17:30N 59°04' E 005°55'0 0.0
2018-May-18 17:00N 59°04' E 005°55'0 0.0
2018-May-18 16:30N 59°04' E 005°55'0 0.0
2018-May-18 16:00N 59°04' E 005°55'0 0.0
2018-May-18 15:30N 59°04' E 005°55'0 0.0
2018-May-18 15:00N 59°04' E 005°55'0 0.0
2018-May-18 14:30N 59°04' E 005°55'0 0.0
2018-May-18 14:00N 59°04' E 005°55'0 0.0
2018-May-18 13:30N 59°04' E 005°55'0 0.0
2018-May-18 13:00N 59°04' E 005°55'0 0.0
2018-May-18 12:30N 59°04' E 005°55'0 0.0
2018-May-18 12:00N 59°04' E 005°55'0 0.0
2018-May-18 11:30N 59°04' E 005°55'0 0.0
2018-May-18 11:00N 59°04' E 005°55'0 0.0
2018-May-18 10:30N 59°04' E 005°55'0 0.0
2018-May-18 10:00N 59°04' E 005°55'0 0.0
2018-May-18 09:30N 59°04' E 005°55'0 0.0
2018-May-18 09:00N 59°04' E 005°55'0 0.0
2018-May-18 08:30N 59°04' E 005°55'0 0.0
2018-May-18 08:00N 59°04' E 005°55'0 0.0
2018-May-18 07:30N 59°04' E 005°55'0 0.0
2018-May-18 07:00N 59°04' E 005°55'0 0.0
2018-May-18 06:30N 59°04' E 005°55'0 0.0
2018-May-18 06:00N 59°04' E 005°55'0 0.0
2018-May-18 05:30N 59°04' E 005°55'0 0.0
2018-May-18 05:00N 59°04' E 005°55'0 0.0
2018-May-18 04:30N 59°04' E 005°55'0 0.0
2018-May-18 04:00N 59°04' E 005°55'0 0.0
2018-May-18 03:30N 59°04' E 005°55'0 0.0
2018-May-18 03:00N 59°04' E 005°55'0 0.0
2018-May-18 02:30N 59°04' E 005°55'0 0.0
2018-May-18 01:57N 59°04' E 005°55'0 0.0
2018-May-18 01:30N 59°04' E 005°55'0 0.0
2018-May-18 01:00N 59°04' E 005°55'0 0.0
2018-May-18 00:30N 59°04' E 005°55'0 0.0
2018-May-18 00:00N 59°04' E 005°55'0 0.0
2018-May-17 23:30N 59°04' E 005°55'0 0.0
2018-May-17 23:00N 59°04' E 005°55'0 0.0
2018-May-17 22:30N 59°04' E 005°55'0 0.0
2018-May-17 22:00N 59°04' E 005°55'0 0.0
2018-May-17 21:30N 59°04' E 005°55'0 0.0
2018-May-17 21:00N 59°04' E 005°55'0 0.0
2018-May-17 20:30N 59°04' E 005°55'0 0.0
2018-May-17 20:00N 59°04' E 005°55'0 0.0
2018-May-17 19:30N 59°04' E 005°55'0 0.0
2018-May-17 19:00N 59°04' E 005°55'0 0.0
2018-May-17 18:30N 59°04' E 005°55'0 0.0
2018-May-17 18:00N 59°04' E 005°55'0 0.0
2018-May-17 17:30N 59°04' E 005°55'0 0.0
2018-May-17 17:00N 59°04' E 005°55'0 0.0
2018-May-17 16:30N 59°04' E 005°55'0 0.0
2018-May-17 16:00N 59°04' E 005°55'0 0.0
2018-May-17 15:30N 59°04' E 005°55'0 0.0
2018-May-17 15:00N 59°04' E 005°55'0 0.0
2018-May-17 14:30N 59°04' E 005°55'0 0.0
2018-May-17 14:00N 59°04' E 005°55'0 0.0
2018-May-17 13:30N 59°04' E 005°55'0 0.0
2018-May-17 13:00N 59°04' E 005°55'0 0.0
2018-May-17 12:30N 59°04' E 005°55'0 0.0
2018-May-17 12:00N 59°04' E 005°55'0 0.0
2018-May-17 11:30N 59°04' E 005°55'0 0.0
2018-May-17 11:00N 59°04' E 005°55'0 0.0
2018-May-17 10:30N 59°04' E 005°55'0 0.0
2018-May-17 10:00N 59°04' E 005°55'0 0.0
2018-May-17 09:30N 59°04' E 005°55'0 0.0
2018-May-17 09:00N 59°04' E 005°55'0 0.0
2018-May-17 08:30N 59°04' E 005°55'0 0.0
2018-May-17 08:00N 59°04' E 005°55'0 0.0
2018-May-17 07:30N 59°04' E 005°55'0 0.0
2018-May-17 07:00N 59°04' E 005°55'0 0.0
2018-May-17 06:30N 59°04' E 005°55'0 0.0
2018-May-17 06:00N 59°04' E 005°55'0 0.0
2018-May-17 05:30N 59°04' E 005°55'0 0.0
2018-May-17 05:00N 59°04' E 005°55'0 0.0
2018-May-17 04:30N 59°04' E 005°55'0 0.0
2018-May-17 04:00N 59°04' E 005°55'0 0.0
2018-May-17 03:27N 59°04' E 005°55'0 0.0
2018-May-17 03:00N 59°04' E 005°55'0 0.0
2018-May-17 02:27N 59°04' E 005°55'0 0.0
2018-May-17 02:00N 59°04' E 005°55'0 0.0
2018-May-17 01:30N 59°04' E 005°55'0 0.0
2018-May-17 01:00N 59°04' E 005°55'0 0.0
2018-May-17 00:30N 59°04' E 005°55'0 0.0
2018-May-17 00:00N 59°04' E 005°55'0 0.0
2018-May-16 23:30N 59°04' E 005°55'0 0.0
2018-May-16 23:00N 59°04' E 005°55'0 0.0
2018-May-16 22:30N 59°04' E 005°55'0 0.0
2018-May-16 22:00N 59°04' E 005°55'0 0.0
2018-May-16 21:30N 59°04' E 005°55'0 0.0
2018-May-16 21:00N 59°04' E 005°55'0 0.0
2018-May-16 20:30N 59°04' E 005°55'0 0.0
2018-May-16 19:54N 59°04' E 005°55'0 0.0
2018-May-16 19:30N 59°04' E 005°55'0 0.0
2018-May-16 19:00N 59°04' E 005°55'0 0.0
2018-May-16 18:30N 59°04' E 005°55'0 0.0
2018-May-16 18:00N 59°04' E 005°55'0 0.0
2018-May-16 17:30N 59°04' E 005°55'0 0.0
2018-May-16 17:00N 59°04' E 005°55'0 0.0
2018-May-16 16:30N 59°04' E 005°55'0 0.0
2018-May-16 16:00N 59°04' E 005°55'0 0.0
2018-May-16 15:27N 59°04' E 005°55'0 0.0
2018-May-16 15:00N 59°04' E 005°55'0 0.0
2018-May-16 14:30N 59°04' E 005°55'0 0.0
2018-May-16 14:00N 59°04' E 005°55'0 0.0
2018-May-16 13:24N 59°04' E 005°55'0 0.0
2018-May-16 13:00N 59°04' E 005°55'0 0.0
2018-May-16 12:30N 59°04' E 005°55'0 0.0
2018-May-16 12:00N 59°04' E 005°55'0 0.0
2018-May-16 11:30N 59°04' E 005°55'0 0.0
2018-May-16 11:00N 59°04' E 005°55'0 0.0
2018-May-16 10:30N 59°04' E 005°55'0 0.0
2018-May-16 10:00N 59°04' E 005°55'0 0.0
2018-May-16 09:30N 59°04' E 005°55'0 0.0
2018-May-16 09:00N 59°04' E 005°55'0 0.0
2018-May-16 08:30N 59°04' E 005°55'0 0.0
2018-May-16 08:00N 59°04' E 005°55'0 0.0
2018-May-16 07:30N 59°04' E 005°55'0 0.0
2018-May-16 07:00N 59°04' E 005°55'0 0.0
2018-May-16 06:30N 59°04' E 005°55'0 0.0
2018-May-16 06:00N 59°04' E 005°55'0 0.0
2018-May-16 05:30N 59°04' E 005°55'0 0.0
2018-May-16 05:00N 59°04' E 005°55'0 0.0
2018-May-16 04:30N 59°04' E 005°55'0 0.0
2018-May-16 04:00N 59°04' E 005°55'0 0.0
2018-May-16 03:30N 59°04' E 005°55'0 0.0
2018-May-16 03:00N 59°04' E 005°55'0 0.0
2018-May-16 02:30N 59°04' E 005°55'0 0.0
2018-May-16 01:57N 59°04' E 005°55'0 0.0
2018-May-16 01:30N 59°04' E 005°55'0 0.0
2018-May-16 01:00N 59°04' E 005°55'0 0.0
2018-May-16 00:27N 59°04' E 005°55'0 0.0
2018-May-16 00:00N 59°04' E 005°55'0 0.0
2018-May-15 23:30N 59°04' E 005°55'0 0.0
2018-May-15 23:00N 59°04' E 005°55'0 0.0
2018-May-15 22:30N 59°04' E 005°55'0 0.0
2018-May-15 22:00N 59°04' E 005°55'0 0.0
2018-May-15 21:30N 59°04' E 005°55'0 0.0
2018-May-15 21:00N 59°04' E 005°55'0 0.0
2018-May-15 20:30N 59°04' E 005°55'0 0.0
2018-May-15 20:00N 59°04' E 005°55'0 0.0
2018-May-15 19:30N 59°04' E 005°55'0 0.0
2018-May-15 19:00N 59°04' E 005°55'0 0.0
2018-May-15 18:30N 59°04' E 005°55'0 0.0
2018-May-15 18:00N 59°04' E 005°55'0 0.0
2018-May-15 17:30N 59°04' E 005°55'0 0.0
2018-May-15 17:00N 59°04' E 005°55'0 0.0
2018-May-15 16:30N 59°04' E 005°55'0 0.0
2018-May-15 16:00N 59°04' E 005°55'0 0.0
2018-May-15 15:30N 59°04' E 005°55'0 0.0
2018-May-15 15:00N 59°04' E 005°55'0 0.0
2018-May-15 14:30N 59°04' E 005°55'0 0.0
2018-May-15 14:00N 59°04' E 005°55'0 0.0
2018-May-15 13:30N 59°04' E 005°55'0 0.0
2018-May-15 13:00N 59°04' E 005°55'0 0.0
2018-May-15 12:30N 59°04' E 005°55'0 0.0
2018-May-15 12:00N 59°04' E 005°55'0 0.0
2018-May-15 11:30N 59°04' E 005°55'0 0.0
2018-May-15 11:00N 59°04' E 005°55'0 0.0
2018-May-15 10:30N 59°04' E 005°55'0 0.0
2018-May-15 10:00N 59°04' E 005°55'0 0.0
2018-May-15 09:30N 59°04' E 005°55'0 0.0
2018-May-15 09:00N 59°04' E 005°55'0 0.0
2018-May-15 08:30N 59°04' E 005°55'0 0.0
2018-May-15 08:00N 59°04' E 005°55'0 0.0
2018-May-15 07:30N 59°04' E 005°55'0 0.0
2018-May-15 07:00N 59°04' E 005°55'0 0.0
2018-May-15 06:30N 59°04' E 005°55'0 0.0
2018-May-15 06:00N 59°04' E 005°55'0 0.0
2018-May-15 05:30N 59°04' E 005°55'0 0.0
2018-May-15 05:00N 59°04' E 005°55'0 0.0
2018-May-15 04:30N 59°04' E 005°55'0 0.1
2018-May-15 04:00N 59°04' E 005°55'2 4.1
2018-May-15 03:30N 59°02' E 005°52'3 6.0
2018-May-15 03:00N 59°02' E 005°46'3 6.9
2018-May-15 02:30N 59°01' E 005°39'3 6.6
2018-May-15 01:59N 59°01' E 005°33'511.0
2018-May-15 01:30N 58°55' E 005°33'5 9.5
2018-May-15 01:00N 58°51' E 005°30'3 6.1
2018-May-15 00:30N 58°49' E 005°26'3 6.6
2018-May-15 00:00N 58°46' E 005°23'  
Track history (hours):
 
Tides and Currents Weather Stations Pressure Air Temp Water Temp Dewpoint Dewpoint Depression Visibility Wind Speed Wind Dir Waves Ship Positions

Marten

Last reported at 2018-May-24 23:32 UTC. Time now 2018-May-25 22:27 UTC.
Position N 58°09' E 005°42'.

Length 90 m; draft 5 m.

Type: Ship. MMSI: 212376000.

Date/timePositionNaut miles runAvg speedWind from/ knotsBaromVisibWave heightAir tempDewpointWater temp
2018-May-24 23:32N 58°09' E 005°42'010.9
2018-May-24 23:30N 58°09' E 005°42'510.7
2018-May-24 23:00N 58°14' E 005°39'511.0
2018-May-24 22:30N 58°19' E 005°37'611.5
2018-May-24 22:00N 58°25' E 005°34'612.2
2018-May-24 21:30N 58°31' E 005°31'612.2
2018-May-24 21:00N 58°37' E 005°28'612.3
2018-May-24 20:30N 58°43' E 005°25'611.9
2018-May-24 20:00N 58°48' E 005°22'612.1
2018-May-24 19:30N 58°55' E 005°21'612.0
2018-May-24 19:00N 59°00' E 005°19'510.7
2018-May-24 18:30N 59°06' E 005°22'611.7
2018-May-24 18:00N 59°09' E 005°30'611.5
2018-May-24 17:30N 59°13' E 005°38'611.5
2018-May-24 17:00N 59°17' E 005°46'611.3
2018-May-24 16:30N 59°20' E 005°56'510.7
2018-May-24 16:00N 59°24' E 006°04'5 9.9
2018-May-24 15:30N 59°27' E 006°11'611.0
2018-May-24 15:00N 59°32' E 006°16'510.4
2018-May-24 14:29N 59°37' E 006°19'2 4.3
2018-May-24 14:00N 59°39' E 006°22'0 0.0
2018-May-24 13:30N 59°39' E 006°22'0 0.0
2018-May-24 09:00N 59°39' E 006°22'0 0.0
2018-May-24 08:30N 59°39' E 006°22'0 0.0
2018-May-24 08:00N 59°39' E 006°22'0 0.0
2018-May-24 07:30N 59°39' E 006°22'0 0.0
2018-May-24 07:00N 59°39' E 006°22'0 0.0
2018-May-24 06:30N 59°39' E 006°22'0 0.0
2018-May-24 06:00N 59°39' E 006°22'0 0.0
2018-May-24 05:30N 59°39' E 006°22'0 0.0
2018-May-24 05:00N 59°39' E 006°22'0 0.0
2018-May-24 04:27N 59°39' E 006°22'0 0.0
2018-May-24 04:00N 59°39' E 006°22'0 0.0
2018-May-24 03:30N 59°39' E 006°22'0 0.0
2018-May-24 03:00N 59°39' E 006°22'0 0.0
2018-May-24 02:30N 59°39' E 006°22'0 0.0
2018-May-24 02:00N 59°39' E 006°22'0 0.0
2018-May-24 01:30N 59°39' E 006°22'0 0.0
2018-May-24 01:00N 59°39' E 006°22'0 0.0
2018-May-24 00:30N 59°39' E 006°22'0 0.0
2018-May-24 00:00N 59°39' E 006°22'0 0.0
2018-May-23 23:30N 59°39' E 006°22'0 0.0
2018-May-23 23:00N 59°39' E 006°22'0 0.0
2018-May-23 22:29N 59°39' E 006°22'0 0.0
2018-May-23 21:57N 59°39' E 006°22'0 0.0
2018-May-23 21:30N 59°39' E 006°22'0 0.0
2018-May-23 21:00N 59°39' E 006°22'0 0.0
2018-May-23 20:30N 59°39' E 006°22'0 0.0
2018-May-23 20:00N 59°39' E 006°22'0 0.0
2018-May-23 19:30N 59°39' E 006°22'0 0.0
2018-May-23 19:00N 59°39' E 006°22'0 0.0
2018-May-23 18:30N 59°39' E 006°22'0 0.0
2018-May-23 18:00N 59°39' E 006°22'0 0.0
2018-May-23 17:30N 59°39' E 006°22'0 0.0
2018-May-23 17:00N 59°39' E 006°22'0 0.0
2018-May-23 16:30N 59°39' E 006°22'0 0.0
2018-May-23 16:00N 59°39' E 006°22'0 0.0
2018-May-23 15:30N 59°39' E 006°22'0 0.0
2018-May-23 14:57N 59°39' E 006°22'0 0.0
2018-May-23 14:30N 59°39' E 006°22'0 0.0
2018-May-23 14:00N 59°39' E 006°22'0 0.0
2018-May-23 13:30N 59°39' E 006°22'0 0.0
2018-May-23 12:57N 59°39' E 006°22'0 0.0
2018-May-23 12:30N 59°39' E 006°22'0 0.0
2018-May-23 12:00N 59°39' E 006°22'0 0.0
2018-May-23 11:30N 59°39' E 006°22'0 0.0
2018-May-23 10:57N 59°39' E 006°22'1 1.8
2018-May-23 10:30N 59°38' E 006°20'1 2.6
2018-May-23 10:00N 59°37' E 006°19'2 4.7
2018-May-23 09:30N 59°35' E 006°19'5 9.6
2018-May-23 09:00N 59°30' E 006°15'5 9.7
2018-May-23 08:30N 59°26' E 006°10'4 7.9
2018-May-23 08:01N 59°24' E 006°04'610.9
2018-May-23 07:29N 59°19' E 005°59'511.3
2018-May-23 07:00N 59°14' E 005°55'611.7
2018-May-23 06:31N 59°08' E 005°52'4 8.6
2018-May-23 06:00N 59°04' E 005°55'0 0.1
2018-May-23 05:30N 59°04' E 005°55'0 0.0
2018-May-23 05:01N 59°04' E 005°55'0 0.0
2018-May-23 04:31N 59°04' E 005°55'0 0.0
2018-May-23 03:58N 59°04' E 005°55'0 0.0
2018-May-23 03:27N 59°04' E 005°55'0 0.0
2018-May-23 03:00N 59°04' E 005°55'0 0.0
2018-May-23 02:30N 59°04' E 005°55'0 0.0
2018-May-23 02:00N 59°04' E 005°55'0 0.0
2018-May-23 01:30N 59°04' E 005°55'0 0.0
2018-May-23 00:58N 59°04' E 005°55'0 0.0
2018-May-23 00:30N 59°04' E 005°55'0 0.0
2018-May-23 00:00N 59°04' E 005°55'0 0.0
2018-May-22 23:30N 59°04' E 005°55'0 0.0
2018-May-22 22:58N 59°04' E 005°55'0 0.0
2018-May-22 22:30N 59°04' E 005°55'0 0.0
2018-May-22 22:00N 59°04' E 005°55'0 0.0
2018-May-22 21:30N 59°04' E 005°55'0 0.0
2018-May-22 21:00N 59°04' E 005°55'0 0.0
2018-May-22 20:30N 59°04' E 005°55'0 0.0
2018-May-22 20:00N 59°04' E 005°55'0 0.0
2018-May-22 19:30N 59°04' E 005°55'0 0.0
2018-May-22 19:00N 59°04' E 005°55'0 0.0
2018-May-22 18:30N 59°04' E 005°55'0 0.0
2018-May-22 18:00N 59°04' E 005°55'0 0.0
2018-May-22 17:30N 59°04' E 005°55'0 0.0
2018-May-22 17:00N 59°04' E 005°55'0 0.0
2018-May-22 16:30N 59°04' E 005°55'0 0.0
2018-May-22 16:00N 59°04' E 005°55'0 0.0
2018-May-22 15:30N 59°04' E 005°55'0 0.0
2018-May-22 15:00N 59°04' E 005°55'0 0.0
2018-May-22 14:27N 59°04' E 005°55'0 0.0
2018-May-22 14:00N 59°04' E 005°55'0 0.0
2018-May-22 13:30N 59°04' E 005°55'0 0.0
2018-May-22 13:00N 59°04' E 005°55'0 0.0
2018-May-22 12:30N 59°04' E 005°55'0 0.0
2018-May-22 12:00N 59°04' E 005°55'0 0.0
2018-May-22 11:30N 59°04' E 005°55'0 0.0
2018-May-22 11:00N 59°04' E 005°55'0 0.0
2018-May-22 10:30N 59°04' E 005°55'0 0.0
2018-May-22 10:00N 59°04' E 005°55'0 0.0
2018-May-22 09:30N 59°04' E 005°55'0 0.0
2018-May-22 09:00N 59°04' E 005°55'0 0.0
2018-May-22 08:30N 59°04' E 005°55'0 0.0
2018-May-22 08:00N 59°04' E 005°55'0 0.0
2018-May-22 07:30N 59°04' E 005°55'0 0.0
2018-May-22 07:00N 59°04' E 005°55'0 0.0
2018-May-22 06:30N 59°04' E 005°55'0 0.0
2018-May-22 06:00N 59°04' E 005°55'0 0.0
2018-May-22 05:30N 59°04' E 005°55'0 0.0
2018-May-22 05:00N 59°04' E 005°55'0 0.0
2018-May-22 04:30N 59°04' E 005°55'0 0.0
2018-May-22 04:00N 59°04' E 005°55'0 0.0
2018-May-22 03:30N 59°04' E 005°55'0 0.0
2018-May-22 03:00N 59°04' E 005°55'0 0.0
2018-May-22 02:30N 59°04' E 005°55'0 0.0
2018-May-22 02:00N 59°04' E 005°55'0 0.0
2018-May-22 01:30N 59°04' E 005°55'0 0.0
2018-May-22 01:00N 59°04' E 005°55'0 0.0
2018-May-22 00:30N 59°04' E 005°55'0 0.0
2018-May-21 23:57N 59°04' E 005°55'0 0.0
2018-May-21 23:30N 59°04' E 005°55'0 0.0
2018-May-21 22:57N 59°04' E 005°55'0 0.0
2018-May-21 22:30N 59°04' E 005°55'0 0.0
2018-May-21 22:00N 59°04' E 005°55'0 0.0
2018-May-21 21:30N 59°04' E 005°55'0 0.0
2018-May-21 21:00N 59°04' E 005°55'0 0.0
2018-May-21 20:30N 59°04' E 005°55'0 0.0
2018-May-21 20:00N 59°04' E 005°55'0 0.0
2018-May-21 19:30N 59°04' E 005°55'0 0.0
2018-May-21 19:00N 59°04' E 005°55'0 0.0
2018-May-21 18:30N 59°04' E 005°55'0 0.0
2018-May-21 18:00N 59°04' E 005°55'0 0.0
2018-May-21 17:30N 59°04' E 005°55'0 0.0
2018-May-21 17:00N 59°04' E 005°55'0 0.0
2018-May-21 16:30N 59°04' E 005°55'0 0.0
2018-May-21 16:00N 59°04' E 005°55'0 0.0
2018-May-21 15:30N 59°04' E 005°55'0 0.0
2018-May-21 15:00N 59°04' E 005°55'0 0.0
2018-May-21 14:30N 59°04' E 005°55'0 0.0
2018-May-21 14:00N 59°04' E 005°55'0 0.0
2018-May-21 13:30N 59°04' E 005°55'0 0.0
2018-May-21 13:00N 59°04' E 005°55'0 0.0
2018-May-21 12:30N 59°04' E 005°55'0 0.0
2018-May-21 12:00N 59°04' E 005°55'0 0.0
2018-May-21 11:30N 59°04' E 005°55'0 0.0
2018-May-21 11:00N 59°04' E 005°55'0 0.0
2018-May-21 10:30N 59°04' E 005°55'0 0.0
2018-May-21 10:00N 59°04' E 005°55'0 0.0
2018-May-21 09:30N 59°04' E 005°55'0 0.0
2018-May-21 09:00N 59°04' E 005°55'0 0.0
2018-May-21 08:30N 59°04' E 005°55'0 0.0
2018-May-21 08:00N 59°04' E 005°55'0 0.0
2018-May-21 07:30N 59°04' E 005°55'0 0.0
2018-May-21 07:00N 59°04' E 005°55'0 0.0
2018-May-21 06:30N 59°04' E 005°55'0 0.0
2018-May-21 06:00N 59°04' E 005°55'0 0.0
2018-May-21 05:30N 59°04' E 005°55'0 0.0
2018-May-21 05:00N 59°04' E 005°55'0 0.0
2018-May-21 04:30N 59°04' E 005°55'0 0.0
2018-May-21 04:00N 59°04' E 005°55'0 0.0
2018-May-21 03:27N 59°04' E 005°55'0 0.0
2018-May-21 03:00N 59°04' E 005°55'0 0.0
2018-May-21 02:30N 59°04' E 005°55'0 0.0
2018-May-21 02:00N 59°04' E 005°55'0 0.0
2018-May-21 01:30N 59°04' E 005°55'0 0.0
2018-May-21 01:00N 59°04' E 005°55'0 0.0
2018-May-21 00:30N 59°04' E 005°55'0 0.0
2018-May-21 00:00N 59°04' E 005°55'0 0.0
2018-May-20 23:30N 59°04' E 005°55'0 0.0
2018-May-20 23:00N 59°04' E 005°55'0 0.0
2018-May-20 22:30N 59°04' E 005°55'0 0.0
2018-May-20 22:00N 59°04' E 005°55'0 0.0
2018-May-20 21:30N 59°04' E 005°55'0 0.0
2018-May-20 21:00N 59°04' E 005°55'0 0.0
2018-May-20 20:30N 59°04' E 005°55'0 0.0
2018-May-20 20:00N 59°04' E 005°55'0 0.0
2018-May-20 19:30N 59°04' E 005°55'0 0.0
2018-May-20 19:00N 59°04' E 005°55'0 0.0
2018-May-20 18:30N 59°04' E 005°55'0 0.0
2018-May-20 18:00N 59°04' E 005°55'0 0.0
2018-May-20 17:30N 59°04' E 005°55'0 0.0
2018-May-20 17:00N 59°04' E 005°55'0 0.0
2018-May-20 16:30N 59°04' E 005°55'0 0.0
2018-May-20 16:00N 59°04' E 005°55'0 0.0
2018-May-20 15:30N 59°04' E 005°55'0 0.0
2018-May-20 15:00N 59°04' E 005°55'0 0.0
2018-May-20 14:30N 59°04' E 005°55'0 0.0
2018-May-20 14:00N 59°04' E 005°55'0 0.0
2018-May-20 13:30N 59°04' E 005°55'0 0.0
2018-May-20 13:00N 59°04' E 005°55'0 0.0
2018-May-20 12:30N 59°04' E 005°55'0 0.0
2018-May-20 12:00N 59°04' E 005°55'0 0.0
2018-May-20 11:30N 59°04' E 005°55'0 0.0
2018-May-20 11:00N 59°04' E 005°55'0 0.0
2018-May-20 10:30N 59°04' E 005°55'0 0.0
2018-May-20 10:00N 59°04' E 005°55'0 0.0
2018-May-20 09:30N 59°04' E 005°55'0 0.0
2018-May-20 09:00N 59°04' E 005°55'0 0.0
2018-May-20 08:30N 59°04' E 005°55'0 0.0
2018-May-20 08:00N 59°04' E 005°55'0 0.0
2018-May-20 07:30N 59°04' E 005°55'0 0.0
2018-May-20 07:00N 59°04' E 005°55'0 0.0
2018-May-20 06:30N 59°04' E 005°55'0 0.0
2018-May-20 06:00N 59°04' E 005°55'0 0.0
2018-May-20 05:30N 59°04' E 005°55'0 0.0
2018-May-20 05:00N 59°04' E 005°55'0 0.0
2018-May-20 04:30N 59°04' E 005°55'0 0.0
2018-May-20 04:00N 59°04' E 005°55'0 0.0
2018-May-20 03:30N 59°04' E 005°55'0 0.0
2018-May-20 03:00N 59°04' E 005°55'0 0.0
2018-May-20 02:30N 59°04' E 005°55'0 0.0
2018-May-20 01:57N 59°04' E 005°55'0 0.0
2018-May-20 01:30N 59°04' E 005°55'0 0.0
2018-May-20 01:00N 59°04' E 005°55'0 0.0
2018-May-20 00:30N 59°04' E 005°55'0 0.0
2018-May-20 00:00N 59°04' E 005°55'0 0.0
2018-May-19 23:30N 59°04' E 005°55'0 0.0
2018-May-19 23:00N 59°04' E 005°55'0 0.0
2018-May-19 22:30N 59°04' E 005°55'0 0.0
2018-May-19 22:00N 59°04' E 005°55'0 0.0
2018-May-19 21:30N 59°04' E 005°55'0 0.0
2018-May-19 21:00N 59°04' E 005°55'0 0.0
2018-May-19 20:30N 59°04' E 005°55'0 0.0
2018-May-19 20:00N 59°04' E 005°55'0 0.0
2018-May-19 19:30N 59°04' E 005°55'0 0.0
2018-May-19 19:00N 59°04' E 005°55'0 0.0
2018-May-19 18:30N 59°04' E 005°55'0 0.0
2018-May-19 18:00N 59°04' E 005°55'0 0.0
2018-May-19 17:30N 59°04' E 005°55'0 0.0
2018-May-19 17:00N 59°04' E 005°55'0 0.0
2018-May-19 16:30N 59°04' E 005°55'0 0.0
2018-May-19 16:00N 59°04' E 005°55'0 0.0
2018-May-19 15:27N 59°04' E 005°55'0 0.0
2018-May-19 15:00N 59°04' E 005°55'0 0.0
2018-May-19 14:30N 59°04' E 005°55'0 0.0
2018-May-19 14:00N 59°04' E 005°55'0 0.0
2018-May-19 13:30N 59°04' E 005°55'0 0.0
2018-May-19 13:00N 59°04' E 005°55'0 0.0
2018-May-19 12:30N 59°04' E 005°55'0 0.0
2018-May-19 12:00N 59°04' E 005°55'0 0.0
2018-May-19 11:30N 59°04' E 005°55'0 0.0
2018-May-19 11:00N 59°04' E 005°55'0 0.0
2018-May-19 10:30N 59°04' E 005°55'0 0.0
2018-May-19 10:00N 59°04' E 005°55'0 0.0
2018-May-19 09:30N 59°04' E 005°55'0 0.0
2018-May-19 09:00N 59°04' E 005°55'0 0.0
2018-May-19 08:30N 59°04' E 005°55'0 0.0
2018-May-19 07:57N 59°04' E 005°55'0 0.0
2018-May-19 07:30N 59°04' E 005°55'0 0.0
2018-May-19 07:00N 59°04' E 005°55'0 0.0
2018-May-19 06:30N 59°04' E 005°55'0 0.0
2018-May-19 06:00N 59°04' E 005°55'0 0.0
2018-May-19 05:30N 59°04' E 005°55'0 0.0
2018-May-19 05:00N 59°04' E 005°55'0 0.0
2018-May-19 04:30N 59°04' E 005°55'0 0.0
2018-May-19 04:00N 59°04' E 005°55'0 0.0
2018-May-19 03:30N 59°04' E 005°55'0 0.0
2018-May-19 03:00N 59°04' E 005°55'0 0.0
2018-May-19 02:30N 59°04' E 005°55'0 0.0
2018-May-19 02:00N 59°04' E 005°55'0 0.0
2018-May-19 01:27N 59°04' E 005°55'0 0.0
2018-May-19 01:00N 59°04' E 005°55'0 0.0
2018-May-19 00:30N 59°04' E 005°55'0 0.0
2018-May-19 00:00N 59°04' E 005°55'0 0.0
2018-May-18 23:30N 59°04' E 005°55'0 0.0
2018-May-18 23:00N 59°04' E 005°55'0 0.0
2018-May-18 22:30N 59°04' E 005°55'0 0.0
2018-May-18 21:57N 59°04' E 005°55'0 0.0
2018-May-18 21:30N 59°04' E 005°55'0 0.0
2018-May-18 21:00N 59°04' E 005°55'0 0.0
2018-May-18 20:30N 59°04' E 005°55'0 0.0
2018-May-18 20:00N 59°04' E 005°55'0 0.0
2018-May-18 19:30N 59°04' E 005°55'0 0.0
2018-May-18 19:00N 59°04' E 005°55'0 0.0
2018-May-18 18:30N 59°04' E 005°55'0 0.0
2018-May-18 18:00N 59°04' E 005°55'0 0.0
2018-May-18 17:30N 59°04' E 005°55'0 0.0
2018-May-18 17:00N 59°04' E 005°55'0 0.0
2018-May-18 16:30N 59°04' E 005°55'0 0.0
2018-May-18 16:00N 59°04' E 005°55'0 0.0
2018-May-18 15:30N 59°04' E 005°55'0 0.0
2018-May-18 15:00N 59°04' E 005°55'0 0.0
2018-May-18 14:30N 59°04' E 005°55'0 0.0
2018-May-18 14:00N 59°04' E 005°55'0 0.0
2018-May-18 13:30N 59°04' E 005°55'0 0.0
2018-May-18 13:00N 59°04' E 005°55'0 0.0
2018-May-18 12:30N 59°04' E 005°55'0 0.0
2018-May-18 12:00N 59°04' E 005°55'0 0.0
2018-May-18 11:30N 59°04' E 005°55'0 0.0
2018-May-18 11:00N 59°04' E 005°55'0 0.0
2018-May-18 10:30N 59°04' E 005°55'0 0.0
2018-May-18 10:00N 59°04' E 005°55'0 0.0
2018-May-18 09:30N 59°04' E 005°55'0 0.0
2018-May-18 09:00N 59°04' E 005°55'0 0.0
2018-May-18 08:30N 59°04' E 005°55'0 0.0
2018-May-18 08:00N 59°04' E 005°55'0 0.0
2018-May-18 07:30N 59°04' E 005°55'0 0.0
2018-May-18 07:00N 59°04' E 005°55'0 0.0
2018-May-18 06:30N 59°04' E 005°55'0 0.0
2018-May-18 06:00N 59°04' E 005°55'0 0.0
2018-May-18 05:30N 59°04' E 005°55'0 0.0
2018-May-18 05:00N 59°04' E 005°55'0 0.0
2018-May-18 04:30N 59°04' E 005°55'0 0.0
2018-May-18 04:00N 59°04' E 005°55'0 0.0
2018-May-18 03:30N 59°04' E 005°55'0 0.0
2018-May-18 03:00N 59°04' E 005°55'0 0.0
2018-May-18 02:30N 59°04' E 005°55'0 0.0
2018-May-18 01:57N 59°04' E 005°55'0 0.0
2018-May-18 01:30N 59°04' E 005°55'0 0.0
2018-May-18 01:00N 59°04' E 005°55'0 0.0
2018-May-18 00:30N 59°04' E 005°55'0 0.0
2018-May-18 00:00N 59°04' E 005°55'0 0.0
2018-May-17 23:30N 59°04' E 005°55'0 0.0
2018-May-17 23:00N 59°04' E 005°55'0 0.0
2018-May-17 22:30N 59°04' E 005°55'0 0.0
2018-May-17 22:00N 59°04' E 005°55'0 0.0
2018-May-17 21:30N 59°04' E 005°55'0 0.0
2018-May-17 21:00N 59°04' E 005°55'0 0.0
2018-May-17 20:30N 59°04' E 005°55'0 0.0
2018-May-17 20:00N 59°04' E 005°55'0 0.0
2018-May-17 19:30N 59°04' E 005°55'0 0.0
2018-May-17 19:00N 59°04' E 005°55'0 0.0
2018-May-17 18:30N 59°04' E 005°55'0 0.0
2018-May-17 18:00N 59°04' E 005°55'0 0.0
2018-May-17 17:30N 59°04' E 005°55'0 0.0
2018-May-17 17:00N 59°04' E 005°55'0 0.0
2018-May-17 16:30N 59°04' E 005°55'0 0.0
2018-May-17 16:00N 59°04' E 005°55'0 0.0
2018-May-17 15:30N 59°04' E 005°55'0 0.0
2018-May-17 15:00N 59°04' E 005°55'0 0.0
2018-May-17 14:30N 59°04' E 005°55'0 0.0
2018-May-17 14:00N 59°04' E 005°55'0 0.0
2018-May-17 13:30N 59°04' E 005°55'0 0.0
2018-May-17 13:00N 59°04' E 005°55'0 0.0
2018-May-17 12:30N 59°04' E 005°55'0 0.0
2018-May-17 12:00N 59°04' E 005°55'0 0.0
2018-May-17 11:30N 59°04' E 005°55'0 0.0
2018-May-17 11:00N 59°04' E 005°55'0 0.0
2018-May-17 10:30N 59°04' E 005°55'0 0.0
2018-May-17 10:00N 59°04' E 005°55'0 0.0
2018-May-17 09:30N 59°04' E 005°55'0 0.0
2018-May-17 09:00N 59°04' E 005°55'0 0.0
2018-May-17 08:30N 59°04' E 005°55'0 0.0
2018-May-17 08:00N 59°04' E 005°55'0 0.0
2018-May-17 07:30N 59°04' E 005°55'0 0.0
2018-May-17 07:00N 59°04' E 005°55'0 0.0
2018-May-17 06:30N 59°04' E 005°55'0 0.0
2018-May-17 06:00N 59°04' E 005°55'0 0.0
2018-May-17 05:30N 59°04' E 005°55'0 0.0
2018-May-17 05:00N 59°04' E 005°55'0 0.0
2018-May-17 04:30N 59°04' E 005°55'0 0.0
2018-May-17 04:00N 59°04' E 005°55'0 0.0
2018-May-17 03:27N 59°04' E 005°55'0 0.0
2018-May-17 03:00N 59°04' E 005°55'0 0.0
2018-May-17 02:27N 59°04' E 005°55'0 0.0
2018-May-17 02:00N 59°04' E 005°55'0 0.0
2018-May-17 01:30N 59°04' E 005°55'0 0.0
2018-May-17 01:00N 59°04' E 005°55'0 0.0
2018-May-17 00:30N 59°04' E 005°55'0 0.0
2018-May-17 00:00N 59°04' E 005°55'0 0.0
2018-May-16 23:30N 59°04' E 005°55'0 0.0
2018-May-16 23:00N 59°04' E 005°55'0 0.0
2018-May-16 22:30N 59°04' E 005°55'0 0.0
2018-May-16 22:00N 59°04' E 005°55'0 0.0
2018-May-16 21:30N 59°04' E 005°55'0 0.0
2018-May-16 21:00N 59°04' E 005°55'0 0.0
2018-May-16 20:30N 59°04' E 005°55'0 0.0
2018-May-16 19:54N 59°04' E 005°55'0 0.0
2018-May-16 19:30N 59°04' E 005°55'0 0.0
2018-May-16 19:00N 59°04' E 005°55'0 0.0
2018-May-16 18:30N 59°04' E 005°55'0 0.0
2018-May-16 18:00N 59°04' E 005°55'0 0.0
2018-May-16 17:30N 59°04' E 005°55'0 0.0
2018-May-16 17:00N 59°04' E 005°55'0 0.0
2018-May-16 16:30N 59°04' E 005°55'0 0.0
2018-May-16 16:00N 59°04' E 005°55'0 0.0
2018-May-16 15:27N 59°04' E 005°55'0 0.0
2018-May-16 15:00N 59°04' E 005°55'0 0.0
2018-May-16 14:30N 59°04' E 005°55'0 0.0
2018-May-16 14:00N 59°04' E 005°55'0 0.0
2018-May-16 13:24N 59°04' E 005°55'0 0.0
2018-May-16 13:00N 59°04' E 005°55'0 0.0
2018-May-16 12:30N 59°04' E 005°55'0 0.0
2018-May-16 12:00N 59°04' E 005°55'0 0.0
2018-May-16 11:30N 59°04' E 005°55'0 0.0
2018-May-16 11:00N 59°04' E 005°55'0 0.0
2018-May-16 10:30N 59°04' E 005°55'0 0.0
2018-May-16 10:00N 59°04' E 005°55'0 0.0
2018-May-16 09:30N 59°04' E 005°55'0 0.0
2018-May-16 09:00N 59°04' E 005°55'0 0.0
2018-May-16 08:30N 59°04' E 005°55'0 0.0
2018-May-16 08:00N 59°04' E 005°55'0 0.0
2018-May-16 07:30N 59°04' E 005°55'0 0.0
2018-May-16 07:00N 59°04' E 005°55'0 0.0
2018-May-16 06:30N 59°04' E 005°55'0 0.0
2018-May-16 06:00N 59°04' E 005°55'0 0.0
2018-May-16 05:30N 59°04' E 005°55'0 0.0
2018-May-16 05:00N 59°04' E 005°55'0 0.0
2018-May-16 04:30N 59°04' E 005°55'0 0.0
2018-May-16 04:00N 59°04' E 005°55'0 0.0
2018-May-16 03:30N 59°04' E 005°55'0 0.0
2018-May-16 03:00N 59°04' E 005°55'0 0.0
2018-May-16 02:30N 59°04' E 005°55'0 0.0
2018-May-16 01:57N 59°04' E 005°55'0 0.0
2018-May-16 01:30N 59°04' E 005°55'0 0.0
2018-May-16 01:00N 59°04' E 005°55'0 0.0
2018-May-16 00:27N 59°04' E 005°55'0 0.0
2018-May-16 00:00N 59°04' E 005°55'0 0.0
2018-May-15 23:30N 59°04' E 005°55'0 0.0
2018-May-15 23:00N 59°04' E 005°55'0 0.0
2018-May-15 22:30N 59°04' E 005°55'0 0.0
2018-May-15 22:00N 59°04' E 005°55'0 0.0
2018-May-15 21:30N 59°04' E 005°55'0 0.0
2018-May-15 21:00N 59°04' E 005°55'0 0.0
2018-May-15 20:30N 59°04' E 005°55'0 0.0
2018-May-15 20:00N 59°04' E 005°55'0 0.0
2018-May-15 19:30N 59°04' E 005°55'0 0.0
2018-May-15 19:00N 59°04' E 005°55'0 0.0
2018-May-15 18:30N 59°04' E 005°55'0 0.0
2018-May-15 18:00N 59°04' E 005°55'0 0.0
2018-May-15 17:30N 59°04' E 005°55'0 0.0
2018-May-15 17:00N 59°04' E 005°55'0 0.0
2018-May-15 16:30N 59°04' E 005°55'0 0.0
2018-May-15 16:00N 59°04' E 005°55'0 0.0
2018-May-15 15:30N 59°04' E 005°55'0 0.0
2018-May-15 15:00N 59°04' E 005°55'0 0.0
2018-May-15 14:30N 59°04' E 005°55'0 0.0
2018-May-15 14:00N 59°04' E 005°55'0 0.0
2018-May-15 13:30N 59°04' E 005°55'0 0.0
2018-May-15 13:00N 59°04' E 005°55'0 0.0
2018-May-15 12:30N 59°04' E 005°55'0 0.0
2018-May-15 12:00N 59°04' E 005°55'0 0.0
2018-May-15 11:30N 59°04' E 005°55'0 0.0
2018-May-15 11:00N 59°04' E 005°55'0 0.0
2018-May-15 10:30N 59°04' E 005°55'0 0.0
2018-May-15 10:00N 59°04' E 005°55'0 0.0
2018-May-15 09:30N 59°04' E 005°55'0 0.0
2018-May-15 09:00N 59°04' E 005°55'0 0.0
2018-May-15 08:30N 59°04' E 005°55'0 0.0
2018-May-15 08:00N 59°04' E 005°55'0 0.0
2018-May-15 07:30N 59°04' E 005°55'0 0.0
2018-May-15 07:00N 59°04' E 005°55'0 0.0
2018-May-15 06:30N 59°04' E 005°55'0 0.0
2018-May-15 06:00N 59°04' E 005°55'0 0.0
2018-May-15 05:30N 59°04' E 005°55'0 0.0
2018-May-15 05:00N 59°04' E 005°55'0 0.0
2018-May-15 04:30N 59°04' E 005°55'0 0.1
2018-May-15 04:00N 59°04' E 005°55'2 4.1
2018-May-15 03:30N 59°02' E 005°52'3 6.0
2018-May-15 03:00N 59°02' E 005°46'3 6.9
2018-May-15 02:30N 59°01' E 005°39'3 6.6
2018-May-15 01:59N 59°01' E 005°33'511.0
2018-May-15 01:30N 58°55' E 005°33'5 9.5
2018-May-15 01:00N 58°51' E 005°30'3 6.1
2018-May-15 00:30N 58°49' E 005°26'3 6.6
2018-May-15 00:00N 58°46' E 005°23'  

Dump ship's entire track history